sensor_id;sensor_type;location;lat;lon;timestamp;temperature;humidity
6307;DHT22;3186;54.062;9.962;2023-01-19T00:00:35;1.10;99.90
6307;DHT22;3186;54.062;9.962;2023-01-19T00:03:03;1.10;99.90
6307;DHT22;3186;54.062;9.962;2023-01-19T00:05:29;1.10;99.90
6307;DHT22;3186;54.062;9.962;2023-01-19T00:07:55;1.10;99.90
6307;DHT22;3186;54.062;9.962;2023-01-19T00:10:21;1.10;99.90
6307;DHT22;3186;54.062;9.962;2023-01-19T00:12:46;1.10;99.90
6307;DHT22;3186;54.062;9.962;2023-01-19T00:15:12;1.10;99.90
6307;DHT22;3186;54.062;9.962;2023-01-19T00:17:38;1.20;99.90
6307;DHT22;3186;54.062;9.962;2023-01-19T00:20:07;1.10;99.90
6307;DHT22;3186;54.062;9.962;2023-01-19T00:22:33;1.20;99.90
6307;DHT22;3186;54.062;9.962;2023-01-19T00:24:58;1.20;99.90
6307;DHT22;3186;54.062;9.962;2023-01-19T00:27:25;1.20;99.90
6307;DHT22;3186;54.062;9.962;2023-01-19T00:29:51;1.20;99.90
6307;DHT22;3186;54.062;9.962;2023-01-19T00:32:16;1.20;99.90
6307;DHT22;3186;54.062;9.962;2023-01-19T00:34:44;1.20;99.90
6307;DHT22;3186;54.062;9.962;2023-01-19T00:37:15;1.20;99.90
6307;DHT22;3186;54.062;9.962;2023-01-19T00:39:41;1.20;99.90
6307;DHT22;3186;54.062;9.962;2023-01-19T00:42:11;1.20;99.90
6307;DHT22;3186;54.062;9.962;2023-01-19T00:44:56;1.20;99.90
6307;DHT22;3186;54.062;9.962;2023-01-19T00:47:22;1.30;99.90
6307;DHT22;3186;54.062;9.962;2023-01-19T00:49:47;1.20;99.90
6307;DHT22;3186;54.062;9.962;2023-01-19T00:52:13;1.30;99.90
6307;DHT22;3186;54.062;9.962;2023-01-19T00:54:39;1.30;99.90
6307;DHT22;3186;54.062;9.962;2023-01-19T00:57:05;1.30;99.90
6307;DHT22;3186;54.062;9.962;2023-01-19T00:59:31;1.30;99.90
6307;DHT22;3186;54.062;9.962;2023-01-19T01:01:57;1.30;99.90
6307;DHT22;3186;54.062;9.962;2023-01-19T01:04:23;1.40;99.90
6307;DHT22;3186;54.062;9.962;2023-01-19T01:06:48;1.40;99.90
6307;DHT22;3186;54.062;9.962;2023-01-19T01:09:14;1.60;99.90
6307;DHT22;3186;54.062;9.962;2023-01-19T01:11:41;1.40;99.90
6307;DHT22;3186;54.062;9.962;2023-01-19T01:14:08;1.40;99.90
6307;DHT22;3186;54.062;9.962;2023-01-19T01:16:34;1.40;99.90
6307;DHT22;3186;54.062;9.962;2023-01-19T01:18:59;1.50;99.90
6307;DHT22;3186;54.062;9.962;2023-01-19T01:21:25;1.50;99.90
6307;DHT22;3186;54.062;9.962;2023-01-19T01:23:51;1.50;99.90
6307;DHT22;3186;54.062;9.962;2023-01-19T01:26:17;1.50;99.90
6307;DHT22;3186;54.062;9.962;2023-01-19T01:28:43;1.50;99.90
6307;DHT22;3186;54.062;9.962;2023-01-19T01:31:08;1.50;99.90
6307;DHT22;3186;54.062;9.962;2023-01-19T01:33:34;1.50;99.90
6307;DHT22;3186;54.062;9.962;2023-01-19T01:36:00;1.50;99.90
6307;DHT22;3186;54.062;9.962;2023-01-19T01:38:26;1.50;99.90
6307;DHT22;3186;54.062;9.962;2023-01-19T01:40:52;1.50;99.90
6307;DHT22;3186;54.062;9.962;2023-01-19T01:43:18;1.60;99.90
6307;DHT22;3186;54.062;9.962;2023-01-19T01:45:45;1.50;99.90
6307;DHT22;3186;54.062;9.962;2023-01-19T01:48:22;1.60;99.90
6307;DHT22;3186;54.062;9.962;2023-01-19T01:50:57;1.50;99.90
6307;DHT22;3186;54.062;9.962;2023-01-19T01:53:47;1.50;99.90
6307;DHT22;3186;54.062;9.962;2023-01-19T01:56:18;1.60;99.90
6307;DHT22;3186;54.062;9.962;2023-01-19T01:58:46;1.60;99.90
6307;DHT22;3186;54.062;9.962;2023-01-19T02:01:12;1.60;99.90
6307;DHT22;3186;54.062;9.962;2023-01-19T02:03:57;1.60;99.90
6307;DHT22;3186;54.062;9.962;2023-01-19T02:06:23;1.60;99.90
6307;DHT22;3186;54.062;9.962;2023-01-19T02:08:53;1.50;99.90
6307;DHT22;3186;54.062;9.962;2023-01-19T02:11:40;1.60;99.90
6307;DHT22;3186;54.062;9.962;2023-01-19T02:14:24;1.60;99.90
6307;DHT22;3186;54.062;9.962;2023-01-19T02:16:50;1.60;99.90
6307;DHT22;3186;54.062;9.962;2023-01-19T02:19:20;1.60;99.90
6307;DHT22;3186;54.062;9.962;2023-01-19T02:24:35;1.60;99.90
6307;DHT22;3186;54.062;9.962;2023-01-19T02:27:01;1.60;99.90
6307;DHT22;3186;54.062;9.962;2023-01-19T02:29:27;1.60;99.90
6307;DHT22;3186;54.062;9.962;2023-01-19T02:31:54;1.60;99.90
6307;DHT22;3186;54.062;9.962;2023-01-19T02:34:21;1.60;99.90
6307;DHT22;3186;54.062;9.962;2023-01-19T02:37:16;1.70;99.90
6307;DHT22;3186;54.062;9.962;2023-01-19T02:39:54;1.60;99.90
6307;DHT22;3186;54.062;9.962;2023-01-19T02:42:40;1.70;99.90
6307;DHT22;3186;54.062;9.962;2023-01-19T02:45:09;1.70;99.90
6307;DHT22;3186;54.062;9.962;2023-01-19T02:47:44;1.70;99.90
6307;DHT22;3186;54.062;9.962;2023-01-19T02:53:32;1.70;99.90
6307;DHT22;3186;54.062;9.962;2023-01-19T02:59:01;1.70;99.90
6307;DHT22;3186;54.062;9.962;2023-01-19T03:07:04;1.70;99.90
6307;DHT22;3186;54.062;9.962;2023-01-19T03:12:08;1.70;99.90
6307;DHT22;3186;54.062;9.962;2023-01-19T03:14:42;1.70;99.90
6307;DHT22;3186;54.062;9.962;2023-01-19T03:17:11;1.70;99.90
6307;DHT22;3186;54.062;9.962;2023-01-19T03:19:41;1.80;99.90
6307;DHT22;3186;54.062;9.962;2023-01-19T03:22:20;1.80;99.90
6307;DHT22;3186;54.062;9.962;2023-01-19T03:24:47;1.80;99.90
6307;DHT22;3186;54.062;9.962;2023-01-19T03:27:35;1.80;99.90
6307;DHT22;3186;54.062;9.962;2023-01-19T03:30:14;1.80;99.90
6307;DHT22;3186;54.062;9.962;2023-01-19T03:32:50;1.80;99.90
6307;DHT22;3186;54.062;9.962;2023-01-19T03:35:21;1.80;99.90
6307;DHT22;3186;54.062;9.962;2023-01-19T03:37:50;1.90;99.90
6307;DHT22;3186;54.062;9.962;2023-01-19T03:40:17;1.80;99.90
6307;DHT22;3186;54.062;9.962;2023-01-19T03:42:44;1.90;99.90
6307;DHT22;3186;54.062;9.962;2023-01-19T03:45:11;1.90;99.90
6307;DHT22;3186;54.062;9.962;2023-01-19T03:47:38;1.90;99.90
6307;DHT22;3186;54.062;9.962;2023-01-19T03:50:08;1.90;99.90
6307;DHT22;3186;54.062;9.962;2023-01-19T03:52:36;1.90;99.90
6307;DHT22;3186;54.062;9.962;2023-01-19T03:55:03;1.90;99.90
6307;DHT22;3186;54.062;9.962;2023-01-19T03:57:30;1.90;99.90
6307;DHT22;3186;54.062;9.962;2023-01-19T03:59:56;1.90;99.90
6307;DHT22;3186;54.062;9.962;2023-01-19T04:02:23;1.90;99.90
6307;DHT22;3186;54.062;9.962;2023-01-19T04:04:49;1.90;99.90
6307;DHT22;3186;54.062;9.962;2023-01-19T04:07:15;1.90;99.90
6307;DHT22;3186;54.062;9.962;2023-01-19T04:09:41;1.90;99.90
6307;DHT22;3186;54.062;9.962;2023-01-19T04:12:07;1.90;99.90
6307;DHT22;3186;54.062;9.962;2023-01-19T04:14:32;1.90;99.90
6307;DHT22;3186;54.062;9.962;2023-01-19T04:16:58;1.90;99.90
6307;DHT22;3186;54.062;9.962;2023-01-19T04:19:24;1.90;99.90
6307;DHT22;3186;54.062;9.962;2023-01-19T04:21:50;2.00;99.90
6307;DHT22;3186;54.062;9.962;2023-01-19T04:24:17;1.90;99.90
6307;DHT22;3186;54.062;9.962;2023-01-19T04:26:42;1.90;99.90
6307;DHT22;3186;54.062;9.962;2023-01-19T04:29:08;1.90;99.90
6307;DHT22;3186;54.062;9.962;2023-01-19T04:31:37;1.90;99.90
6307;DHT22;3186;54.062;9.962;2023-01-19T04:34:03;2.10;99.90
6307;DHT22;3186;54.062;9.962;2023-01-19T04:36:29;2.00;99.90
6307;DHT22;3186;54.062;9.962;2023-01-19T04:38:55;2.00;99.90
6307;DHT22;3186;54.062;9.962;2023-01-19T04:41:21;2.00;99.90
6307;DHT22;3186;54.062;9.962;2023-01-19T04:43:46;2.00;99.90
6307;DHT22;3186;54.062;9.962;2023-01-19T04:46:15;2.00;99.90
6307;DHT22;3186;54.062;9.962;2023-01-19T04:48:41;2.00;99.90
6307;DHT22;3186;54.062;9.962;2023-01-19T04:51:07;2.00;99.90
6307;DHT22;3186;54.062;9.962;2023-01-19T04:53:34;2.00;99.90
6307;DHT22;3186;54.062;9.962;2023-01-19T04:56:00;2.10;99.90
6307;DHT22;3186;54.062;9.962;2023-01-19T04:58:26;2.10;99.90
6307;DHT22;3186;54.062;9.962;2023-01-19T05:00:51;2.00;99.90
6307;DHT22;3186;54.062;9.962;2023-01-19T05:03:18;2.10;99.90
6307;DHT22;3186;54.062;9.962;2023-01-19T05:05:44;2.10;99.90
6307;DHT22;3186;54.062;9.962;2023-01-19T05:08:11;2.10;99.90
6307;DHT22;3186;54.062;9.962;2023-01-19T05:10:37;2.10;99.90
6307;DHT22;3186;54.062;9.962;2023-01-19T05:13:03;2.10;99.90
6307;DHT22;3186;54.062;9.962;2023-01-19T05:15:30;2.10;99.90
6307;DHT22;3186;54.062;9.962;2023-01-19T05:17:56;2.10;99.90
6307;DHT22;3186;54.062;9.962;2023-01-19T05:20:23;2.10;99.90
6307;DHT22;3186;54.062;9.962;2023-01-19T05:22:50;2.10;99.90
6307;DHT22;3186;54.062;9.962;2023-01-19T05:25:16;2.10;99.90
6307;DHT22;3186;54.062;9.962;2023-01-19T05:27:43;2.10;99.90
6307;DHT22;3186;54.062;9.962;2023-01-19T05:30:11;2.10;99.90
6307;DHT22;3186;54.062;9.962;2023-01-19T05:32:39;2.10;99.90
6307;DHT22;3186;54.062;9.962;2023-01-19T05:35:06;2.10;99.90
6307;DHT22;3186;54.062;9.962;2023-01-19T05:37:32;2.20;99.90
6307;DHT22;3186;54.062;9.962;2023-01-19T05:39:57;2.20;99.90
6307;DHT22;3186;54.062;9.962;2023-01-19T05:42:23;2.20;99.90
6307;DHT22;3186;54.062;9.962;2023-01-19T05:44:49;2.20;99.90
6307;DHT22;3186;54.062;9.962;2023-01-19T05:47:15;2.20;99.90
6307;DHT22;3186;54.062;9.962;2023-01-19T05:49:41;2.20;99.90
6307;DHT22;3186;54.062;9.962;2023-01-19T05:52:07;2.20;99.90
6307;DHT22;3186;54.062;9.962;2023-01-19T05:54:32;2.20;99.90
6307;DHT22;3186;54.062;9.962;2023-01-19T05:56:58;2.20;99.90
6307;DHT22;3186;54.062;9.962;2023-01-19T05:59:24;2.20;99.90
6307;DHT22;3186;54.062;9.962;2023-01-19T06:01:51;2.20;99.90
6307;DHT22;3186;54.062;9.962;2023-01-19T06:04:18;2.20;99.90
6307;DHT22;3186;54.062;9.962;2023-01-19T06:06:46;2.20;99.90
6307;DHT22;3186;54.062;9.962;2023-01-19T06:09:16;2.30;99.90
6307;DHT22;3186;54.062;9.962;2023-01-19T06:11:43;2.30;99.90
6307;DHT22;3186;54.062;9.962;2023-01-19T06:14:10;2.30;99.90
6307;DHT22;3186;54.062;9.962;2023-01-19T06:16:35;2.30;99.90
6307;DHT22;3186;54.062;9.962;2023-01-19T06:19:01;2.30;99.90
6307;DHT22;3186;54.062;9.962;2023-01-19T06:21:28;2.30;99.90
6307;DHT22;3186;54.062;9.962;2023-01-19T06:23:54;2.30;99.90
6307;DHT22;3186;54.062;9.962;2023-01-19T06:26:20;2.30;99.90
6307;DHT22;3186;54.062;9.962;2023-01-19T06:28:45;2.30;99.90
6307;DHT22;3186;54.062;9.962;2023-01-19T06:31:13;2.30;99.90
6307;DHT22;3186;54.062;9.962;2023-01-19T06:33:39;2.30;99.90
6307;DHT22;3186;54.062;9.962;2023-01-19T06:36:05;2.30;99.90
6307;DHT22;3186;54.062;9.962;2023-01-19T06:38:30;2.30;99.90
6307;DHT22;3186;54.062;9.962;2023-01-19T06:40:57;2.30;99.90
6307;DHT22;3186;54.062;9.962;2023-01-19T06:43:24;2.30;99.90
6307;DHT22;3186;54.062;9.962;2023-01-19T06:45:50;2.30;99.90
6307;DHT22;3186;54.062;9.962;2023-01-19T06:48:16;2.30;99.90
6307;DHT22;3186;54.062;9.962;2023-01-19T06:50:46;2.30;99.90
6307;DHT22;3186;54.062;9.962;2023-01-19T06:53:13;2.40;99.90
6307;DHT22;3186;54.062;9.962;2023-01-19T06:55:42;2.30;99.90
6307;DHT22;3186;54.062;9.962;2023-01-19T06:58:08;2.30;99.90
6307;DHT22;3186;54.062;9.962;2023-01-19T07:00:34;2.30;99.90
6307;DHT22;3186;54.062;9.962;2023-01-19T07:03:00;2.30;99.90
6307;DHT22;3186;54.062;9.962;2023-01-19T07:05:26;2.30;99.90
6307;DHT22;3186;54.062;9.962;2023-01-19T07:07:55;2.30;99.90
6307;DHT22;3186;54.062;9.962;2023-01-19T07:10:22;2.30;99.90
6307;DHT22;3186;54.062;9.962;2023-01-19T07:12:48;2.30;99.90
6307;DHT22;3186;54.062;9.962;2023-01-19T07:15:15;2.30;99.90
6307;DHT22;3186;54.062;9.962;2023-01-19T07:17:42;2.30;99.90
6307;DHT22;3186;54.062;9.962;2023-01-19T07:20:09;2.20;99.90
6307;DHT22;3186;54.062;9.962;2023-01-19T07:22:37;2.20;99.90
6307;DHT22;3186;54.062;9.962;2023-01-19T07:25:04;2.20;99.90
6307;DHT22;3186;54.062;9.962;2023-01-19T07:27:30;2.20;99.90
6307;DHT22;3186;54.062;9.962;2023-01-19T07:29:56;2.20;99.90
6307;DHT22;3186;54.062;9.962;2023-01-19T07:32:21;2.20;99.90
6307;DHT22;3186;54.062;9.962;2023-01-19T07:34:47;2.20;99.90
6307;DHT22;3186;54.062;9.962;2023-01-19T07:37:13;2.10;99.90
6307;DHT22;3186;54.062;9.962;2023-01-19T07:39:39;2.10;99.90
6307;DHT22;3186;54.062;9.962;2023-01-19T07:42:06;2.10;99.90
6307;DHT22;3186;54.062;9.962;2023-01-19T07:44:31;2.10;99.90
6307;DHT22;3186;54.062;9.962;2023-01-19T07:46:57;2.10;99.90
6307;DHT22;3186;54.062;9.962;2023-01-19T07:49:23;2.10;99.90
6307;DHT22;3186;54.062;9.962;2023-01-19T07:51:49;2.10;99.90
6307;DHT22;3186;54.062;9.962;2023-01-19T07:54:15;2.10;99.90
6307;DHT22;3186;54.062;9.962;2023-01-19T07:56:41;2.10;99.90
6307;DHT22;3186;54.062;9.962;2023-01-19T07:59:07;2.20;99.90
6307;DHT22;3186;54.062;9.962;2023-01-19T08:01:34;2.20;99.90
6307;DHT22;3186;54.062;9.962;2023-01-19T08:04:00;2.20;99.90
6307;DHT22;3186;54.062;9.962;2023-01-19T08:06:31;2.20;99.90
6307;DHT22;3186;54.062;9.962;2023-01-19T08:08:58;2.20;99.90
6307;DHT22;3186;54.062;9.962;2023-01-19T08:11:23;2.20;99.90
6307;DHT22;3186;54.062;9.962;2023-01-19T08:13:49;2.20;99.90
6307;DHT22;3186;54.062;9.962;2023-01-19T08:16:15;2.30;99.90
6307;DHT22;3186;54.062;9.962;2023-01-19T08:18:41;2.20;99.90
6307;DHT22;3186;54.062;9.962;2023-01-19T08:21:07;2.30;99.90
6307;DHT22;3186;54.062;9.962;2023-01-19T08:23:33;2.20;99.90
6307;DHT22;3186;54.062;9.962;2023-01-19T08:25:59;2.20;99.90
6307;DHT22;3186;54.062;9.962;2023-01-19T08:28:25;2.30;99.90
6307;DHT22;3186;54.062;9.962;2023-01-19T08:30:51;2.30;99.90
6307;DHT22;3186;54.062;9.962;2023-01-19T08:33:23;2.30;99.90
6307;DHT22;3186;54.062;9.962;2023-01-19T08:35:51;2.30;99.90
6307;DHT22;3186;54.062;9.962;2023-01-19T08:38:18;2.30;99.90
6307;DHT22;3186;54.062;9.962;2023-01-19T08:40:44;2.30;99.90
6307;DHT22;3186;54.062;9.962;2023-01-19T08:43:13;2.30;99.90
6307;DHT22;3186;54.062;9.962;2023-01-19T08:45:41;2.30;99.90
6307;DHT22;3186;54.062;9.962;2023-01-19T08:48:13;2.30;99.90
6307;DHT22;3186;54.062;9.962;2023-01-19T08:50:40;2.30;99.90
6307;DHT22;3186;54.062;9.962;2023-01-19T08:53:06;2.30;99.90
6307;DHT22;3186;54.062;9.962;2023-01-19T08:55:34;2.40;99.90
6307;DHT22;3186;54.062;9.962;2023-01-19T08:58:01;2.40;99.90
6307;DHT22;3186;54.062;9.962;2023-01-19T09:00:32;2.40;99.90
6307;DHT22;3186;54.062;9.962;2023-01-19T09:02:59;2.40;99.90
6307;DHT22;3186;54.062;9.962;2023-01-19T09:05:27;2.40;99.90
6307;DHT22;3186;54.062;9.962;2023-01-19T09:07:53;2.40;99.90
6307;DHT22;3186;54.062;9.962;2023-01-19T09:10:19;2.40;99.90
6307;DHT22;3186;54.062;9.962;2023-01-19T09:12:45;2.40;99.90
6307;DHT22;3186;54.062;9.962;2023-01-19T09:15:12;2.40;99.90
6307;DHT22;3186;54.062;9.962;2023-01-19T09:17:40;2.40;99.90
6307;DHT22;3186;54.062;9.962;2023-01-19T09:20:09;2.40;99.90
6307;DHT22;3186;54.062;9.962;2023-01-19T09:22:35;2.40;99.90
6307;DHT22;3186;54.062;9.962;2023-01-19T09:25:01;2.40;99.90
6307;DHT22;3186;54.062;9.962;2023-01-19T09:27:27;2.40;99.90
6307;DHT22;3186;54.062;9.962;2023-01-19T09:29:52;2.50;99.90
6307;DHT22;3186;54.062;9.962;2023-01-19T09:32:19;2.50;99.90
6307;DHT22;3186;54.062;9.962;2023-01-19T09:34:45;2.50;99.90
6307;DHT22;3186;54.062;9.962;2023-01-19T09:37:12;2.50;99.90
6307;DHT22;3186;54.062;9.962;2023-01-19T09:39:38;2.50;99.90
6307;DHT22;3186;54.062;9.962;2023-01-19T09:42:26;2.50;99.90
6307;DHT22;3186;54.062;9.962;2023-01-19T09:44:55;2.50;99.90
6307;DHT22;3186;54.062;9.962;2023-01-19T09:47:25;2.50;99.90
6307;DHT22;3186;54.062;9.962;2023-01-19T09:50:19;2.50;99.90
6307;DHT22;3186;54.062;9.962;2023-01-19T09:52:57;2.50;99.90
6307;DHT22;3186;54.062;9.962;2023-01-19T09:55:26;2.50;99.90
6307;DHT22;3186;54.062;9.962;2023-01-19T09:57:53;2.60;99.90
6307;DHT22;3186;54.062;9.962;2023-01-19T10:00:19;2.60;99.90
6307;DHT22;3186;54.062;9.962;2023-01-19T10:02:56;2.60;99.90
6307;DHT22;3186;54.062;9.962;2023-01-19T10:08:59;2.60;99.90
6307;DHT22;3186;54.062;9.962;2023-01-19T10:11:28;2.60;99.90
6307;DHT22;3186;54.062;9.962;2023-01-19T10:13:55;2.60;99.90
6307;DHT22;3186;54.062;9.962;2023-01-19T10:16:52;2.60;99.90
6307;DHT22;3186;54.062;9.962;2023-01-19T10:19:32;2.60;99.90
6307;DHT22;3186;54.062;9.962;2023-01-19T10:22:16;2.70;99.90
6307;DHT22;3186;54.062;9.962;2023-01-19T10:24:44;2.70;99.90
6307;DHT22;3186;54.062;9.962;2023-01-19T10:27:15;2.70;99.90
6307;DHT22;3186;54.062;9.962;2023-01-19T10:29:43;2.70;99.90
6307;DHT22;3186;54.062;9.962;2023-01-19T10:32:24;2.70;99.90
6307;DHT22;3186;54.062;9.962;2023-01-19T10:34:52;2.70;99.90
6307;DHT22;3186;54.062;9.962;2023-01-19T10:37:35;2.70;99.90
6307;DHT22;3186;54.062;9.962;2023-01-19T10:42:34;2.70;99.90
6307;DHT22;3186;54.062;9.962;2023-01-19T10:45:01;2.70;99.90
6307;DHT22;3186;54.062;9.962;2023-01-19T10:47:33;2.70;99.90
6307;DHT22;3186;54.062;9.962;2023-01-19T10:50:20;2.70;99.90
6307;DHT22;3186;54.062;9.962;2023-01-19T10:53:01;2.70;99.90
6307;DHT22;3186;54.062;9.962;2023-01-19T10:55:33;2.70;99.90
6307;DHT22;3186;54.062;9.962;2023-01-19T10:57:59;2.70;99.90
6307;DHT22;3186;54.062;9.962;2023-01-19T11:03:03;2.70;99.90
6307;DHT22;3186;54.062;9.962;2023-01-19T11:05:31;2.70;99.90
6307;DHT22;3186;54.062;9.962;2023-01-19T11:07:57;2.80;99.90
6307;DHT22;3186;54.062;9.962;2023-01-19T11:10:28;2.80;99.90
6307;DHT22;3186;54.062;9.962;2023-01-19T11:13:01;2.80;99.90
6307;DHT22;3186;54.062;9.962;2023-01-19T11:15:34;2.80;99.90
6307;DHT22;3186;54.062;9.962;2023-01-19T11:18:04;2.80;99.90
6307;DHT22;3186;54.062;9.962;2023-01-19T11:20:51;2.80;99.90
6307;DHT22;3186;54.062;9.962;2023-01-19T11:25:53;2.80;99.90
6307;DHT22;3186;54.062;9.962;2023-01-19T11:31:00;2.80;99.90
6307;DHT22;3186;54.062;9.962;2023-01-19T11:33:59;2.90;99.90
6307;DHT22;3186;54.062;9.962;2023-01-19T11:36:28;2.90;99.90
6307;DHT22;3186;54.062;9.962;2023-01-19T11:39:01;2.90;99.90
6307;DHT22;3186;54.062;9.962;2023-01-19T11:41:39;2.90;99.90
6307;DHT22;3186;54.062;9.962;2023-01-19T11:44:10;2.90;99.90
6307;DHT22;3186;54.062;9.962;2023-01-19T11:46:40;2.90;99.90
6307;DHT22;3186;54.062;9.962;2023-01-19T11:49:18;2.90;99.90
6307;DHT22;3186;54.062;9.962;2023-01-19T11:51:55;3.00;99.90
6307;DHT22;3186;54.062;9.962;2023-01-19T11:54:29;3.00;99.90
6307;DHT22;3186;54.062;9.962;2023-01-19T11:56:58;3.00;99.90
6307;DHT22;3186;54.062;9.962;2023-01-19T11:59:24;3.00;99.90
6307;DHT22;3186;54.062;9.962;2023-01-19T12:01:59;3.00;99.90
6307;DHT22;3186;54.062;9.962;2023-01-19T12:04:37;3.00;99.90
6307;DHT22;3186;54.062;9.962;2023-01-19T12:07:05;3.00;99.90
6307;DHT22;3186;54.062;9.962;2023-01-19T12:09:38;3.00;99.90
6307;DHT22;3186;54.062;9.962;2023-01-19T12:17:51;3.10;99.90
6307;DHT22;3186;54.062;9.962;2023-01-19T12:23:03;3.10;99.90
6307;DHT22;3186;54.062;9.962;2023-01-19T12:28:29;3.10;99.90
6307;DHT22;3186;54.062;9.962;2023-01-19T12:30:57;3.20;99.90
6307;DHT22;3186;54.062;9.962;2023-01-19T12:33:39;3.20;99.90
6307;DHT22;3186;54.062;9.962;2023-01-19T12:38:45;3.20;99.90
6307;DHT22;3186;54.062;9.962;2023-01-19T12:46:34;3.30;99.90
6307;DHT22;3186;54.062;9.962;2023-01-19T12:49:27;3.30;99.90
6307;DHT22;3186;54.062;9.962;2023-01-19T12:54:48;3.40;99.90
6307;DHT22;3186;54.062;9.962;2023-01-19T13:02:48;3.40;99.90
6307;DHT22;3186;54.062;9.962;2023-01-19T13:13:40;3.40;99.90
6307;DHT22;3186;54.062;9.962;2023-01-19T13:18:52;3.50;99.90
6307;DHT22;3186;54.062;9.962;2023-01-19T13:24:02;3.50;99.90
6307;DHT22;3186;54.062;9.962;2023-01-19T13:26:35;3.50;99.90
6307;DHT22;3186;54.062;9.962;2023-01-19T13:31:47;3.50;99.90
6307;DHT22;3186;54.062;9.962;2023-01-19T13:34:18;3.50;99.90
6307;DHT22;3186;54.062;9.962;2023-01-19T13:36:46;3.60;99.90
6307;DHT22;3186;54.062;9.962;2023-01-19T13:39:28;3.60;99.90
6307;DHT22;3186;54.062;9.962;2023-01-19T13:41:58;3.60;99.90
6307;DHT22;3186;54.062;9.962;2023-01-19T13:44:28;3.60;99.90
6307;DHT22;3186;54.062;9.962;2023-01-19T13:46:55;3.60;99.90
6307;DHT22;3186;54.062;9.962;2023-01-19T13:49:35;3.60;99.90
6307;DHT22;3186;54.062;9.962;2023-01-19T13:52:11;3.70;99.90
6307;DHT22;3186;54.062;9.962;2023-01-19T13:54:53;3.70;99.90
6307;DHT22;3186;54.062;9.962;2023-01-19T13:57:24;3.70;99.90
6307;DHT22;3186;54.062;9.962;2023-01-19T14:10:48;3.80;99.90
6307;DHT22;3186;54.062;9.962;2023-01-19T14:13:31;3.80;99.90
6307;DHT22;3186;54.062;9.962;2023-01-19T14:16:06;3.80;99.90
6307;DHT22;3186;54.062;9.962;2023-01-19T14:18:34;3.80;99.90
6307;DHT22;3186;54.062;9.962;2023-01-19T14:21:07;3.80;99.90
6307;DHT22;3186;54.062;9.962;2023-01-19T14:23:46;3.80;99.90
6307;DHT22;3186;54.062;9.962;2023-01-19T14:26:49;3.70;99.90
6307;DHT22;3186;54.062;9.962;2023-01-19T14:29:31;3.80;99.90
6307;DHT22;3186;54.062;9.962;2023-01-19T14:32:12;3.80;99.90
6307;DHT22;3186;54.062;9.962;2023-01-19T14:37:27;3.80;99.90
6307;DHT22;3186;54.062;9.962;2023-01-19T14:40:00;3.80;99.90
6307;DHT22;3186;54.062;9.962;2023-01-19T14:42:31;3.70;99.90
6307;DHT22;3186;54.062;9.962;2023-01-19T14:44:59;3.70;99.90
6307;DHT22;3186;54.062;9.962;2023-01-19T14:47:37;3.70;99.90
6307;DHT22;3186;54.062;9.962;2023-01-19T14:50:18;3.70;99.90
6307;DHT22;3186;54.062;9.962;2023-01-19T14:58:12;3.70;99.90
6307;DHT22;3186;54.062;9.962;2023-01-19T15:00:39;3.80;99.90
6307;DHT22;3186;54.062;9.962;2023-01-19T15:03:05;3.80;99.90
6307;DHT22;3186;54.062;9.962;2023-01-19T15:05:32;3.80;99.90
6307;DHT22;3186;54.062;9.962;2023-01-19T15:07:58;3.90;99.90
6307;DHT22;3186;54.062;9.962;2023-01-19T15:10:24;3.90;99.90
6307;DHT22;3186;54.062;9.962;2023-01-19T15:12:51;3.90;99.90
6307;DHT22;3186;54.062;9.962;2023-01-19T15:15:31;3.90;99.90
6307;DHT22;3186;54.062;9.962;2023-01-19T15:17:59;3.80;99.90
6307;DHT22;3186;54.062;9.962;2023-01-19T15:20:25;3.80;99.90
6307;DHT22;3186;54.062;9.962;2023-01-19T15:22:51;3.20;99.90
6307;DHT22;3186;54.062;9.962;2023-01-19T15:25:22;3.80;99.90
6307;DHT22;3186;54.062;9.962;2023-01-19T15:27:52;3.80;99.90
6307;DHT22;3186;54.062;9.962;2023-01-19T15:30:25;3.80;99.90
6307;DHT22;3186;54.062;9.962;2023-01-19T15:32:55;3.80;99.90
6307;DHT22;3186;54.062;9.962;2023-01-19T15:35:22;3.80;99.90
6307;DHT22;3186;54.062;9.962;2023-01-19T15:37:49;3.70;99.90
6307;DHT22;3186;54.062;9.962;2023-01-19T15:40:17;3.70;99.90
6307;DHT22;3186;54.062;9.962;2023-01-19T15:42:43;3.70;99.90
6307;DHT22;3186;54.062;9.962;2023-01-19T15:47:58;3.60;99.90
6307;DHT22;3186;54.062;9.962;2023-01-19T15:50:25;3.60;99.90
6307;DHT22;3186;54.062;9.962;2023-01-19T15:52:51;3.60;99.90
6307;DHT22;3186;54.062;9.962;2023-01-19T15:55:17;3.60;99.90
6307;DHT22;3186;54.062;9.962;2023-01-19T15:57:43;3.60;99.90
6307;DHT22;3186;54.062;9.962;2023-01-19T16:00:09;3.70;99.90
6307;DHT22;3186;54.062;9.962;2023-01-19T16:02:38;3.60;99.90
6307;DHT22;3186;54.062;9.962;2023-01-19T16:05:04;3.60;99.90
6307;DHT22;3186;54.062;9.962;2023-01-19T16:07:31;3.60;99.90
6307;DHT22;3186;54.062;9.962;2023-01-19T16:09:57;3.60;99.90
6307;DHT22;3186;54.062;9.962;2023-01-19T16:12:22;3.50;99.90
6307;DHT22;3186;54.062;9.962;2023-01-19T16:14:49;3.50;99.90
6307;DHT22;3186;54.062;9.962;2023-01-19T16:17:16;3.50;99.90
6307;DHT22;3186;54.062;9.962;2023-01-19T16:19:41;3.50;99.90
6307;DHT22;3186;54.062;9.962;2023-01-19T16:22:09;3.50;99.90
6307;DHT22;3186;54.062;9.962;2023-01-19T16:24:35;3.50;99.90
6307;DHT22;3186;54.062;9.962;2023-01-19T16:27:01;3.50;99.90
6307;DHT22;3186;54.062;9.962;2023-01-19T16:29:29;3.60;99.90
6307;DHT22;3186;54.062;9.962;2023-01-19T16:31:55;3.50;99.90
6307;DHT22;3186;54.062;9.962;2023-01-19T16:34:21;3.50;99.90
6307;DHT22;3186;54.062;9.962;2023-01-19T16:36:49;3.50;99.90
6307;DHT22;3186;54.062;9.962;2023-01-19T16:39:15;3.50;99.90
6307;DHT22;3186;54.062;9.962;2023-01-19T16:41:42;3.50;99.90
6307;DHT22;3186;54.062;9.962;2023-01-19T16:44:12;3.40;99.90
6307;DHT22;3186;54.062;9.962;2023-01-19T16:46:40;3.30;99.90
6307;DHT22;3186;54.062;9.962;2023-01-19T16:49:11;3.30;99.90
6307;DHT22;3186;54.062;9.962;2023-01-19T16:51:37;3.30;99.90
6307;DHT22;3186;54.062;9.962;2023-01-19T16:54:03;3.30;99.90
6307;DHT22;3186;54.062;9.962;2023-01-19T16:56:29;3.20;99.90
6307;DHT22;3186;54.062;9.962;2023-01-19T16:58:57;3.30;99.90
6307;DHT22;3186;54.062;9.962;2023-01-19T17:01:25;3.30;99.90
6307;DHT22;3186;54.062;9.962;2023-01-19T17:03:51;3.20;99.90
6307;DHT22;3186;54.062;9.962;2023-01-19T17:06:19;3.30;99.90
6307;DHT22;3186;54.062;9.962;2023-01-19T17:08:47;3.20;99.90
6307;DHT22;3186;54.062;9.962;2023-01-19T17:11:16;3.30;99.90
6307;DHT22;3186;54.062;9.962;2023-01-19T17:13:53;3.20;99.90
6307;DHT22;3186;54.062;9.962;2023-01-19T17:16:20;3.20;99.90
6307;DHT22;3186;54.062;9.962;2023-01-19T17:18:46;3.20;99.90
6307;DHT22;3186;54.062;9.962;2023-01-19T17:21:12;3.20;99.90
6307;DHT22;3186;54.062;9.962;2023-01-19T17:23:43;3.20;99.90
6307;DHT22;3186;54.062;9.962;2023-01-19T17:26:10;3.10;99.90
6307;DHT22;3186;54.062;9.962;2023-01-19T17:28:36;3.10;99.90
6307;DHT22;3186;54.062;9.962;2023-01-19T17:31:07;3.00;99.90
6307;DHT22;3186;54.062;9.962;2023-01-19T17:33:38;3.10;99.90
6307;DHT22;3186;54.062;9.962;2023-01-19T17:36:09;3.10;99.90
6307;DHT22;3186;54.062;9.962;2023-01-19T17:38:38;3.10;99.90
6307;DHT22;3186;54.062;9.962;2023-01-19T17:41:15;3.10;99.90
6307;DHT22;3186;54.062;9.962;2023-01-19T17:43:41;3.00;99.90
6307;DHT22;3186;54.062;9.962;2023-01-19T17:46:08;3.00;99.90
6307;DHT22;3186;54.062;9.962;2023-01-19T17:48:34;3.10;99.90
6307;DHT22;3186;54.062;9.962;2023-01-19T17:51:05;3.00;99.90
6307;DHT22;3186;54.062;9.962;2023-01-19T17:53:32;3.00;99.90
6307;DHT22;3186;54.062;9.962;2023-01-19T17:56:09;2.90;99.90
6307;DHT22;3186;54.062;9.962;2023-01-19T17:58:35;2.90;99.90
6307;DHT22;3186;54.062;9.962;2023-01-19T18:03:41;2.80;99.90
6307;DHT22;3186;54.062;9.962;2023-01-19T18:06:07;2.70;99.90
6307;DHT22;3186;54.062;9.962;2023-01-19T18:08:34;2.70;99.90